createdAt,value
2022-09-06T00:00:28.574Z,5.33
2022-09-06T00:02:56.525Z,4.90
2022-09-06T00:05:24.588Z,6.47
2022-09-06T00:07:52.424Z,4.40
2022-09-06T00:10:21.718Z,4.97
2022-09-06T00:12:50.515Z,7.20
2022-09-06T00:15:18.687Z,5.37
2022-09-06T00:17:46.542Z,7.10
2022-09-06T00:20:14.388Z,4.17
2022-09-06T00:22:42.307Z,5.40
2022-09-06T00:25:11.384Z,5.63
2022-09-06T00:27:40.550Z,7.77
2022-09-06T00:30:09.799Z,5.57
2022-09-06T00:32:37.610Z,7.30
2022-09-06T00:35:06.901Z,5.53
2022-09-06T00:37:34.729Z,5.53
2022-09-06T00:40:02.754Z,5.50
2022-09-06T00:42:30.715Z,5.20
2022-09-06T00:45:00.593Z,5.53
2022-09-06T00:47:29.666Z,4.33
2022-09-06T00:49:59.991Z,5.03
2022-09-06T00:52:28.721Z,4.97
2022-09-06T00:54:57.165Z,6.47
2022-09-06T00:57:27.103Z,4.13
2022-09-06T00:59:56.591Z,5.90
2022-09-06T01:02:25.844Z,5.40
2022-09-06T01:04:54.097Z,5.50
2022-09-06T01:07:35.032Z,5.90
2022-09-06T01:10:24.929Z,6.33
2022-09-06T01:13:04.968Z,4.40
2022-09-06T01:15:41.557Z,4.43
2022-09-06T01:18:22.743Z,5.87
2022-09-06T01:21:02.370Z,4.40
2022-09-06T01:24:21.133Z,6.43
2022-09-06T01:27:34.045Z,5.13
2022-09-06T01:30:06.143Z,7.43
2022-09-06T01:32:39.281Z,4.90
2022-09-06T01:35:14.521Z,5.60
2022-09-06T01:37:43.476Z,4.77
2022-09-06T01:40:11.344Z,6.80
2022-09-06T01:42:40.901Z,5.07
2022-09-06T01:45:12.903Z,4.27
2022-09-06T01:47:49.492Z,4.77
2022-09-06T01:50:38.159Z,5.00
2022-09-06T01:53:17.369Z,6.17
2022-09-06T01:55:51.337Z,6.33
2022-09-06T01:58:39.526Z,4.57
2022-09-06T02:01:19.076Z,5.67
2022-09-06T02:03:55.191Z,5.40
2022-09-06T02:06:28.058Z,8.47
2022-09-06T02:09:02.855Z,5.50
2022-09-06T02:11:39.812Z,5.23
2022-09-06T02:14:12.134Z,4.10
2022-09-06T02:16:45.095Z,5.63
2022-09-06T02:19:16.631Z,4.73
2022-09-06T02:21:47.621Z,5.43
2022-09-06T02:24:20.808Z,5.40
2022-09-06T02:26:49.443Z,5.50
2022-09-06T02:29:18.586Z,5.13
2022-09-06T02:31:51.673Z,5.77
2022-09-06T02:34:21.134Z,5.77
2022-09-06T02:36:49.687Z,4.87
2022-09-06T02:39:17.718Z,6.10
2022-09-06T02:41:48.169Z,5.47
2022-09-06T02:44:16.059Z,7.80
2022-09-06T02:46:43.860Z,6.10
2022-09-06T02:49:14.124Z,4.60
2022-09-06T02:51:42.076Z,4.87
2022-09-06T02:54:09.925Z,6.37
2022-09-06T02:56:38.116Z,6.93
2022-09-06T02:59:05.964Z,4.00
2022-09-06T03:01:35.249Z,5.97
2022-09-06T03:04:03.618Z,5.10
2022-09-06T03:06:32.971Z,5.80
2022-09-06T03:09:00.966Z,4.93
2022-09-06T03:11:29.036Z,5.47
2022-09-06T03:13:56.899Z,5.27
2022-09-06T03:16:24.861Z,5.87
2022-09-06T03:18:52.706Z,4.27
2022-09-06T03:21:20.676Z,5.97
2022-09-06T03:23:50.937Z,5.67
2022-09-06T03:26:18.769Z,5.07
2022-09-06T03:28:46.600Z,5.20
2022-09-06T03:31:14.469Z,4.37
2022-09-06T03:33:42.393Z,4.87
2022-09-06T03:36:10.256Z,8.00
2022-09-06T03:38:38.072Z,6.73
2022-09-06T03:41:07.224Z,5.87
2022-09-06T03:43:35.173Z,6.07
2022-09-06T03:46:03.500Z,6.47
2022-09-06T03:48:31.359Z,5.87
2022-09-06T03:50:59.923Z,5.43
2022-09-06T03:53:29.251Z,4.67
2022-09-06T03:55:58.655Z,8.97
2022-09-06T03:58:32.415Z,7.43
2022-09-06T04:01:05.574Z,6.40
2022-09-06T04:03:33.978Z,7.73
2022-09-06T04:06:02.475Z,6.53
2022-09-06T04:08:30.759Z,5.70
2022-09-06T04:10:59.515Z,6.27
2022-09-06T04:13:29.950Z,6.03
2022-09-06T04:15:58.269Z,6.47
2022-09-06T04:18:26.785Z,8.73
2022-09-06T04:20:56.225Z,6.63
2022-09-06T04:23:25.410Z,6.00
2022-09-06T04:25:55.275Z,7.13
2022-09-06T04:28:23.836Z,7.00
2022-09-06T04:30:55.333Z,6.00
2022-09-06T04:33:25.836Z,7.67
2022-09-06T04:35:54.064Z,7.93
2022-09-06T04:38:22.003Z,8.20
2022-09-06T04:40:49.922Z,7.23
2022-09-06T04:43:17.992Z,6.70
2022-09-06T04:45:46.373Z,6.00
2022-09-06T04:48:16.165Z,6.80
2022-09-06T04:50:44.104Z,6.73
2022-09-06T04:53:12.000Z,6.63
2022-09-06T04:55:40.086Z,6.00
2022-09-06T04:58:07.989Z,5.57
2022-09-06T05:00:38.576Z,6.00
2022-09-06T05:03:06.619Z,8.37
2022-09-06T05:05:35.803Z,6.13
2022-09-06T05:08:04.072Z,7.13
2022-09-06T05:10:31.971Z,7.37
2022-09-06T05:12:59.875Z,6.70
2022-09-06T05:15:27.825Z,5.77
2022-09-06T05:18:03.141Z,6.43
2022-09-06T05:20:30.982Z,8.40
2022-09-06T05:23:01.571Z,5.97
2022-09-06T05:25:29.523Z,5.87
2022-09-06T05:27:57.336Z,7.70
2022-09-06T05:30:25.146Z,5.27
2022-09-06T05:32:52.945Z,5.33
2022-09-06T05:35:20.785Z,7.53
2022-09-06T05:37:48.635Z,5.80
2022-09-06T05:40:18.007Z,6.97
2022-09-06T05:42:45.818Z,9.03
2022-09-06T05:45:13.647Z,8.20
2022-09-06T05:47:41.481Z,5.67
2022-09-06T05:50:10.154Z,5.37
2022-09-06T05:52:39.199Z,7.37
2022-09-06T05:55:07.811Z,4.57
2022-09-06T05:57:36.985Z,8.00
2022-09-06T06:00:05.878Z,8.70
2022-09-06T06:02:33.790Z,5.53
2022-09-06T06:05:02.126Z,5.43
2022-09-06T06:07:29.933Z,7.67
2022-09-06T06:09:57.752Z,7.40
2022-09-06T06:12:25.550Z,4.53
2022-09-06T06:14:54.719Z,5.73
2022-09-06T06:17:22.651Z,8.93
2022-09-06T06:19:50.463Z,6.03
2022-09-06T06:22:18.300Z,7.67
2022-09-06T06:24:46.139Z,5.83
2022-09-06T06:27:13.993Z,5.07
2022-09-06T06:29:41.827Z,6.40
2022-09-06T06:32:11.002Z,6.53
2022-09-06T06:34:38.864Z,8.90
2022-09-06T06:37:06.689Z,5.57
2022-09-06T06:39:34.574Z,5.23
2022-09-06T06:42:02.394Z,7.37
2022-09-06T06:44:30.229Z,6.10
2022-09-06T06:46:58.776Z,7.20
2022-09-06T06:49:28.399Z,6.10
2022-09-06T06:51:56.206Z,4.30
2022-09-06T06:54:24.030Z,6.17
2022-09-06T06:56:51.939Z,5.00
2022-09-06T06:59:20.536Z,7.00
2022-09-06T07:01:49.897Z,7.43
2022-09-06T07:04:17.839Z,7.83
2022-09-06T07:12:28.066Z,8.10
2022-09-06T07:14:55.878Z,6.03
2022-09-06T07:17:23.724Z,4.97
2022-09-06T07:22:41.315Z,6.13
2022-09-06T07:25:12.157Z,6.20
2022-09-06T07:27:48.694Z,7.57
2022-09-06T07:30:17.621Z,9.17
2022-09-06T07:32:45.485Z,7.73
2022-09-06T07:35:13.922Z,5.53
2022-09-06T07:37:43.154Z,5.37
2022-09-06T07:40:11.994Z,9.40
2022-09-06T07:42:39.893Z,7.53
2022-09-06T07:45:08.581Z,7.80
2022-09-06T07:53:16.636Z,5.97
2022-09-06T07:55:49.661Z,6.60
2022-09-06T07:58:17.502Z,6.88
2022-09-06T08:00:45.518Z,6.03
2022-09-06T08:03:13.469Z,8.82
2022-09-06T08:11:18.726Z,13.93
2022-09-06T08:13:49.902Z,9.23
2022-09-06T08:16:17.861Z,8.45
2022-09-06T08:18:45.708Z,6.22
2022-09-06T08:21:15.660Z,8.27
2022-09-06T08:23:47.390Z,11.73
2022-09-06T08:26:15.749Z,10.77
2022-09-06T08:28:43.682Z,9.75
2022-09-06T08:31:12.986Z,9.00
2022-09-06T08:33:41.951Z,8.88
2022-09-06T08:36:10.980Z,10.20
2022-09-06T08:38:38.892Z,8.57
2022-09-06T08:41:10.786Z,7.75
2022-09-06T08:43:39.765Z,7.68
2022-09-06T08:46:09.470Z,8.30
2022-09-06T08:48:40.009Z,10.88
2022-09-06T08:51:38.848Z,7.97
2022-09-06T08:54:13.369Z,9.40
2022-09-06T08:56:59.516Z,11.68
2022-09-06T08:59:27.617Z,11.45
2022-09-06T09:02:04.351Z,10.18
2022-09-06T09:04:34.300Z,9.32
2022-09-06T09:07:24.870Z,9.18
2022-09-06T09:09:55.177Z,7.32
2022-09-06T09:12:26.096Z,7.22
2022-09-06T09:14:58.589Z,9.05
2022-09-06T09:17:30.724Z,7.03
2022-09-06T09:19:58.519Z,8.20
2022-09-06T09:22:26.716Z,9.93
2022-09-06T09:24:58.947Z,7.47
2022-09-06T09:27:29.733Z,7.88
2022-09-06T09:32:51.360Z,9.73
2022-09-06T09:35:23.414Z,9.75
2022-09-06T09:38:07.768Z,7.55
2022-09-06T09:40:41.686Z,11.23
2022-09-06T09:43:17.751Z,8.30
2022-09-06T09:45:46.652Z,9.23
2022-09-06T09:48:20.752Z,10.10
2022-09-06T09:50:49.093Z,9.60
2022-09-06T09:53:19.444Z,7.82
2022-09-06T09:55:47.684Z,7.82
2022-09-06T09:58:32.219Z,5.28
2022-09-06T10:01:19.088Z,8.95
2022-09-06T10:09:31.824Z,12.13
2022-09-06T10:12:01.579Z,13.07
2022-09-06T10:14:34.019Z,8.60
2022-09-06T10:17:01.858Z,12.13
2022-09-06T10:19:40.789Z,7.22
2022-09-06T10:22:28.894Z,8.32
2022-09-06T10:25:29.367Z,8.88
2022-09-06T10:28:29.991Z,8.77
2022-09-06T10:31:18.854Z,9.48
2022-09-06T10:33:59.047Z,7.15
2022-09-06T10:36:32.833Z,9.70
2022-09-06T10:39:06.129Z,8.63
2022-09-06T10:41:48.899Z,8.85
2022-09-06T10:44:31.251Z,10.48
2022-09-06T10:47:11.292Z,9.00
2022-09-06T10:49:39.759Z,8.68
2022-09-06T10:52:09.649Z,12.82
2022-09-06T10:54:42.066Z,7.80
2022-09-06T11:00:11.861Z,9.05
2022-09-06T11:02:47.080Z,5.65
2022-09-06T11:11:07.121Z,7.90
2022-09-06T11:13:35.040Z,6.35
2022-09-06T11:16:07.962Z,6.38
2022-09-06T11:18:42.077Z,5.55
2022-09-06T11:21:43.184Z,7.10
2022-09-06T11:24:14.122Z,7.28
2022-09-06T11:26:45.231Z,8.10
2022-09-06T11:29:20.890Z,8.68
2022-09-06T11:34:54.214Z,9.50
2022-09-06T11:37:27.988Z,6.35
2022-09-06T11:40:26.746Z,8.38
2022-09-06T11:43:12.806Z,8.52
2022-09-06T11:45:45.677Z,6.82
2022-09-06T11:48:35.051Z,6.35
2022-09-06T11:51:07.611Z,6.82
2022-09-06T11:53:57.740Z,7.28
2022-09-06T11:56:30.965Z,6.97
2022-09-06T11:59:04.897Z,5.30
2022-09-06T12:01:38.943Z,5.20
2022-09-06T12:04:10.258Z,5.90
2022-09-06T12:06:41.832Z,6.82
2022-09-06T12:09:38.597Z,11.27
2022-09-06T12:12:07.101Z,5.78
2022-09-06T12:14:39.660Z,5.75
2022-09-06T12:17:31.087Z,6.32
2022-09-06T12:20:06.470Z,5.20
2022-09-06T12:23:05.964Z,7.85
2022-09-06T12:25:57.580Z,6.45
2022-09-06T12:28:34.697Z,3.17
2022-09-06T12:31:20.996Z,5.50
2022-09-06T12:33:49.138Z,7.28
2022-09-06T12:36:19.481Z,5.25
2022-09-06T12:38:59.105Z,4.97
2022-09-06T12:41:29.173Z,6.85
2022-09-06T12:43:59.271Z,5.72
2022-09-06T12:46:30.108Z,5.57
2022-09-06T12:49:02.960Z,4.78
2022-09-06T12:51:30.773Z,5.25
2022-09-06T12:54:01.891Z,4.50
2022-09-06T12:56:32.816Z,4.53
2022-09-06T12:59:15.248Z,5.07
2022-09-06T13:01:49.189Z,5.10
2022-09-06T13:04:34.103Z,9.50
2022-09-06T13:07:04.741Z,5.47
2022-09-06T13:09:34.930Z,3.60
2022-09-06T13:12:07.733Z,6.60
2022-09-06T13:14:36.572Z,5.80
2022-09-06T13:17:04.477Z,6.57
2022-09-06T13:19:35.569Z,4.53
2022-09-06T13:22:05.416Z,5.10
2022-09-06T13:24:47.252Z,4.32
2022-09-06T13:27:26.214Z,3.88
2022-09-06T13:29:59.110Z,5.47
2022-09-06T13:32:28.180Z,5.43
2022-09-06T13:34:57.825Z,4.65
2022-09-06T13:37:26.872Z,5.38
2022-09-06T13:39:57.570Z,5.82
2022-09-06T13:42:28.682Z,4.93
2022-09-06T13:45:01.413Z,4.43
2022-09-06T13:47:30.350Z,6.47
2022-09-06T13:49:58.184Z,5.10
2022-09-06T13:52:26.028Z,6.03
2022-09-06T13:54:55.680Z,4.20
2022-09-06T13:57:24.621Z,5.18
2022-09-06T13:59:52.756Z,5.53
2022-09-06T14:02:20.928Z,7.25
2022-09-06T14:04:50.167Z,6.18
2022-09-06T14:07:18.180Z,6.43
2022-09-06T14:09:47.413Z,4.40
2022-09-06T14:12:16.587Z,4.97
2022-09-06T14:14:45.355Z,3.03
2022-09-06T14:17:13.175Z,4.93
2022-09-06T14:19:41.400Z,5.05
2022-09-06T14:22:09.201Z,5.00
2022-09-06T14:24:36.995Z,3.88
2022-09-06T14:27:06.990Z,3.20
2022-09-06T14:29:36.724Z,3.28
2022-09-06T14:32:04.934Z,4.38
2022-09-06T14:34:32.785Z,2.78
2022-09-06T14:37:00.582Z,6.60
2022-09-06T14:39:28.566Z,4.07
2022-09-06T14:41:56.459Z,4.95
2022-09-06T14:44:24.365Z,3.03
2022-09-06T14:46:54.592Z,5.68
2022-09-06T14:49:22.621Z,6.07
2022-09-06T14:51:53.199Z,2.88
2022-09-06T14:54:24.161Z,4.97
2022-09-06T14:56:55.160Z,1.67
2022-09-06T14:59:22.979Z,4.22
2022-09-06T15:01:50.860Z,3.03
2022-09-06T15:04:20.142Z,2.70
2022-09-06T15:06:50.617Z,3.83
2022-09-06T15:09:19.145Z,6.32
2022-09-06T15:11:48.596Z,4.10
2022-09-06T15:14:18.146Z,2.83
2022-09-06T15:16:47.678Z,3.35
2022-09-06T15:19:16.762Z,5.13
2022-09-06T15:21:46.820Z,3.95
2022-09-06T15:24:15.131Z,3.53
2022-09-06T15:26:43.819Z,2.40
2022-09-06T15:29:12.668Z,3.80
2022-09-06T15:31:40.883Z,3.63
2022-09-06T15:34:09.763Z,2.88
2022-09-06T15:36:38.259Z,3.05
2022-09-06T15:39:07.545Z,5.45
2022-09-06T15:41:37.043Z,3.03
2022-09-06T15:44:09.451Z,4.30
2022-09-06T15:46:46.689Z,5.70
2022-09-06T15:49:17.221Z,4.68
2022-09-06T15:51:45.675Z,3.72
2022-09-06T15:54:16.147Z,5.88
2022-09-06T15:56:43.838Z,4.07
2022-09-06T15:59:12.716Z,3.72
2022-09-06T16:01:41.079Z,4.90
2022-09-06T16:04:08.956Z,3.65
2022-09-06T16:06:39.622Z,5.20
2022-09-06T16:09:09.789Z,6.68
2022-09-06T16:11:39.160Z,4.68
2022-09-06T16:14:08.957Z,8.13
2022-09-06T16:16:37.199Z,4.97
2022-09-06T16:19:05.325Z,4.68
2022-09-06T16:21:35.366Z,5.63
2022-09-06T16:24:04.931Z,3.70
2022-09-06T16:26:34.148Z,4.95
2022-09-06T16:29:04.733Z,4.45
2022-09-06T16:31:39.100Z,5.82
2022-09-06T16:34:07.813Z,5.03
2022-09-06T16:36:35.703Z,3.88
2022-09-06T16:39:03.832Z,4.80
2022-09-06T16:41:38.820Z,7.00
2022-09-06T16:44:08.390Z,4.18
2022-09-06T16:46:36.279Z,2.67
2022-09-06T16:49:04.510Z,3.97
2022-09-06T16:51:32.672Z,4.88
2022-09-06T16:54:01.535Z,3.88
2022-09-06T16:56:33.526Z,3.38
2022-09-06T16:59:03.258Z,3.00
2022-09-06T17:01:32.956Z,2.85
2022-09-06T17:04:02.178Z,4.07
2022-09-06T17:06:30.409Z,3.10
2022-09-06T17:08:59.195Z,5.55
2022-09-06T17:11:28.836Z,4.00
2022-09-06T17:13:57.515Z,3.35
2022-09-06T17:16:43.880Z,2.55
2022-09-06T17:19:13.906Z,3.85
2022-09-06T17:21:42.452Z,4.72
2022-09-06T17:24:10.632Z,5.18
2022-09-06T17:26:40.200Z,2.43
2022-09-06T17:29:09.052Z,2.30
2022-09-06T17:31:37.937Z,2.87
2022-09-06T17:34:07.625Z,3.20
2022-09-06T17:36:37.600Z,2.78
2022-09-06T17:39:07.687Z,4.20
2022-09-06T17:41:38.811Z,3.35
2022-09-06T17:44:07.707Z,3.53
2022-09-06T17:46:35.565Z,3.60
2022-09-06T17:49:05.312Z,3.50
2022-09-06T17:51:33.828Z,5.07
2022-09-06T17:54:03.287Z,4.63
2022-09-06T17:56:31.309Z,3.07
2022-09-06T17:59:01.671Z,3.23
2022-09-06T18:01:32.055Z,4.33
2022-09-06T18:04:00.787Z,3.33
2022-09-06T18:06:30.330Z,5.03
2022-09-06T18:09:00.973Z,4.13
2022-09-06T18:11:31.994Z,5.03
2022-09-06T18:14:01.307Z,4.90
2022-09-06T18:16:30.556Z,4.80
2022-09-06T18:19:00.377Z,4.33
2022-09-06T18:21:30.924Z,2.93
2022-09-06T18:23:59.631Z,3.37
2022-09-06T18:26:27.834Z,3.10
2022-09-06T18:28:57.177Z,3.80
2022-09-06T18:31:27.206Z,3.90
2022-09-06T18:33:58.040Z,5.20
2022-09-06T18:36:31.167Z,3.77
2022-09-06T18:39:02.664Z,3.43
2022-09-06T18:41:48.097Z,2.90
2022-09-06T18:44:17.925Z,2.10
2022-09-06T18:46:45.938Z,1.50
2022-09-06T18:49:15.445Z,2.20
2022-09-06T18:51:44.609Z,3.83
2022-09-06T18:54:13.170Z,3.27
2022-09-06T18:56:40.991Z,2.37
2022-09-06T18:59:10.746Z,1.73
2022-09-06T19:01:40.710Z,2.63
2022-09-06T19:04:08.998Z,3.20
2022-09-06T19:06:38.090Z,2.50
2022-09-06T19:09:08.426Z,4.57
2022-09-06T19:11:36.745Z,2.83
2022-09-06T19:14:05.631Z,2.20
2022-09-06T19:16:33.626Z,4.20
2022-09-06T19:19:05.886Z,4.27
2022-09-06T19:21:36.743Z,3.60
2022-09-06T19:24:10.289Z,2.63
2022-09-06T19:26:39.536Z,2.67
2022-09-06T19:29:09.856Z,4.00
2022-09-06T19:31:38.681Z,2.30
2022-09-06T19:34:08.453Z,3.73
2022-09-06T19:36:36.948Z,3.93
2022-09-06T19:39:07.278Z,4.13
2022-09-06T19:41:38.847Z,3.47
2022-09-06T19:44:08.652Z,4.03
2022-09-06T19:46:37.173Z,2.47
2022-09-06T19:49:08.044Z,4.50
2022-09-06T19:51:37.936Z,5.97
2022-09-06T19:54:06.491Z,4.17
2022-09-06T19:56:35.675Z,4.23
2022-09-06T19:59:06.076Z,4.40
2022-09-06T20:01:35.228Z,2.00
2022-09-06T20:04:05.198Z,4.33
2022-09-06T20:06:33.104Z,4.00
2022-09-06T20:09:03.531Z,4.87
2022-09-06T20:11:33.322Z,3.97
2022-09-06T20:14:01.603Z,4.60
2022-09-06T20:16:30.377Z,3.10
2022-09-06T20:18:59.877Z,3.37
2022-09-06T20:21:28.285Z,4.03
2022-09-06T20:23:58.087Z,3.60
2022-09-06T20:26:30.291Z,3.63
2022-09-06T20:28:59.801Z,2.93
2022-09-06T20:31:29.194Z,3.97
2022-09-06T20:33:58.986Z,2.83
2022-09-06T20:36:26.927Z,6.00
2022-09-06T20:38:55.259Z,2.97
2022-09-06T20:41:24.652Z,2.10
2022-09-06T20:43:55.113Z,2.27
2022-09-06T20:46:24.432Z,5.67
2022-09-06T20:48:52.782Z,3.13
2022-09-06T20:51:22.636Z,3.50
2022-09-06T20:53:53.807Z,4.73
2022-09-06T20:56:23.988Z,3.83
2022-09-06T20:58:55.303Z,2.40
2022-09-06T21:01:24.929Z,3.23
2022-09-06T21:03:54.296Z,2.07
2022-09-06T21:06:22.964Z,2.30
2022-09-06T21:08:51.503Z,2.83
2022-09-06T21:11:20.115Z,5.40
2022-09-06T21:13:50.623Z,2.87
2022-09-06T21:16:24.416Z,3.60
2022-09-06T21:18:53.129Z,4.50
2022-09-06T21:21:21.440Z,3.70
2022-09-06T21:23:50.152Z,4.03
2022-09-06T21:26:18.535Z,3.77
2022-09-06T21:28:47.765Z,3.00
2022-09-06T21:31:18.164Z,5.13
2022-09-06T21:33:49.002Z,7.33
2022-09-06T21:36:18.786Z,3.90
2022-09-06T21:38:48.912Z,3.23
2022-09-06T21:41:18.361Z,2.87
2022-09-06T21:43:46.931Z,4.73
2022-09-06T21:46:16.446Z,2.50
2022-09-06T21:48:46.005Z,4.20
2022-09-06T21:51:17.613Z,3.33
2022-09-06T21:53:47.149Z,2.93
2022-09-06T21:56:15.692Z,2.73
2022-09-06T21:58:44.755Z,2.40
2022-09-06T22:01:12.658Z,4.23
2022-09-06T22:03:40.587Z,3.03
2022-09-06T22:06:13.363Z,4.50
2022-09-06T22:08:43.872Z,2.43
2022-09-06T22:11:12.849Z,3.13
2022-09-06T22:13:41.933Z,2.83
2022-09-06T22:16:10.471Z,2.13
2022-09-06T22:18:38.917Z,2.30
2022-09-06T22:21:09.387Z,5.13
2022-09-06T22:23:37.527Z,3.90
2022-09-06T22:26:08.737Z,2.70
2022-09-06T22:28:37.757Z,2.10
2022-09-06T22:31:06.307Z,3.23
2022-09-06T22:33:34.868Z,4.87
2022-09-06T22:36:03.145Z,2.60
2022-09-06T22:38:31.927Z,3.50
2022-09-06T22:41:00.132Z,5.93
2022-09-06T22:43:29.333Z,2.30
2022-09-06T22:46:03.900Z,4.73
2022-09-06T22:48:31.858Z,3.27
2022-09-06T22:51:00.582Z,2.20
2022-09-06T22:53:29.025Z,3.97
2022-09-06T22:55:57.192Z,5.70
2022-09-06T22:58:26.865Z,2.13
2022-09-06T23:00:56.588Z,3.53
2022-09-06T23:03:24.557Z,4.60
2022-09-06T23:05:52.410Z,4.73
2022-09-06T23:08:20.310Z,2.77
2022-09-06T23:10:48.364Z,4.47
2022-09-06T23:13:17.444Z,6.00
2022-09-06T23:15:46.428Z,6.13
2022-09-06T23:18:16.165Z,5.13
2022-09-06T23:20:43.997Z,4.87
2022-09-06T23:23:11.843Z,3.90
2022-09-06T23:25:40.366Z,5.60
2022-09-06T23:28:08.231Z,5.90
2022-09-06T23:30:38.626Z,4.63
2022-09-06T23:33:06.473Z,5.33
2022-09-06T23:35:35.646Z,4.17
2022-09-06T23:38:03.490Z,7.53
2022-09-06T23:40:31.320Z,4.63
2022-09-06T23:42:59.131Z,3.87
2022-09-06T23:45:27.300Z,5.73
2022-09-06T23:47:55.142Z,4.37
2022-09-06T23:50:22.982Z,4.40
2022-09-06T23:52:52.167Z,5.93
2022-09-06T23:55:20.007Z,5.03
2022-09-06T23:57:47.886Z,3.37
